Aérodrome :
LOGIN :

S'inscrire | Disclaimer

   EN    FR    IT 

 










Légende :    VFR   VFR Marginal   IFR   IFR Intensif   IFR Très Intensif
Visi : 
Plafond : 
>= 8 km
>= 3000ft
5 à 8 km
1000 à 3000 ft
1500m à 5 km
500 à 1000 ft
800 à 1500m
200 à 500 ft
< 800m
< 200 ft
Symboles :   Orages  Brouillard  Fortes neiges  Fortes précipitations  Vent > 20 kt
SIGMETs :   Divers  Orages  Givrage  Turbulence  Onde Orograph.  Cendres Volcan.







- Altitude de l'aérodrome : 458 ft
- Voir les cartes d'approche


LFSI - St-Dizier

DERNIER METAR :
  • 211200Z AUTO 10005KT 060V120 9999 SCT014 OVC066 06/01 Q1013

METARs EXPIRÉS :
  • 211130Z AUTO 07005KT 9000 FEW014 BKN076 07/02 Q1013
  • 211100Z AUTO 07006KT 9000 FEW030 SCT060 OVC084 06/02 Q1013
  • 211030Z AUTO 06005KT 040V100 7000 FEW011 BKN031 OVC060 05/02 Q1013
  • 211000Z AUTO 08005KT 6000 FEW010 BKN031 OVC054 05/02 Q1013
  • 210930Z AUTO 08005KT 6000 BKN029 BKN038 OVC052 05/02 Q1013

TAF TAF LFSI
Valide du 21 à 09h jusqu'au 22 à 09h UTC


210800Z 2109/2209 05003KT 6000 BKN025
TEMPO 2202/2209 0500 FZFG VV///
Pas de NOTAMs connus pour ce terrain.



MET'MAP, la Météo Aéronautique d'un coup d'oeil ! - Copyright ORBIFLY Décembre 2007 - Disclaimer

ORBIFLY MET'MAP TEAM :

Programmation & Développement : Alexandra Zaïnal
Conception & Développement : Baudouin d'Aumeries
Co-Programmation & Développement : Marc-Olivier Méhu
Soutien technique & logistique : Manuel Goepfert

Contact : metmap@orbifly.com




SOURCES & CREDITS :

   NOAA